Saxis, Virginia
Current Conditions -  °F | °C
As of 10:54 PM on Wednesday 22 Oct 2014 (Local Time) from KWAL Reporting Station
Overcast Overcast  
Wind Chill: 56°   Ceiling: 2300
Heat Index: 56°   Visibility: 10mi
Dew Point: 48°   Wind: 16mph
Humidity: 75%   Direction: 340°NNW
Pressure: 29.82"   Gusts: 29mph
Location:  37.92°N, 75.72°W
Report Text: KWAL 230254Z AUTO 34014G25KT 10SM BKN023 OVC030 13/09 A2982 RMK AO2 PK WND 35026/0235 SLP095 60000 T01330089 50002
Loading
Personal Weather Stations






























Interactive Weather Map
Tropical Storm Tracking
New forecast layout! Learn more

10-Day Weather Forecast

Advertisements
Track Severe Weather on mobile